Cartagena de Indias, Colombia

3:44 AM COT en Octubre 25, 2014 (GMT -0500)
Ernesto Cortissoz | Change Station
CLOSE
Current Station
Aeropuerto
Location: Barranquilla,
Altura: 98 ft
Estaciones meteorológicas cercanas

Alt 98 ft 10.88 °N, 74.78 °W | Updated 44 minutes ago

Scattered Clouds
Nubes dispersas
79 ° F
Sensación térmica 79 ° F
N
5
Viento Variable Viento desde OSO

Hoy
Alta -- | Baja -- ° F
--% Posibilidad de precipitaciones
Ayer
Alta -- | Baja -- ° F
Precip. -- pul
5:51 AM 5:40 PM
Luna nueva, 2% visible
Presión 29.82 pul
Visibilidad 6.2 Millas
Nubes Nubes dispersas 1000 ft
Punto de rocío 77 ° F
Humedad 94%
Precipitaciones 0.00 pul
Espesor de la nieve No disponible.
UV 0 de una escala de 12
Polen No disponible.
Calidad del aire No disponible.
Flu Activity No disponible.
METAR SKBQ 250800Z 24004KT 9999 SCT010 26/25 A2982

More Conditions Fewer Conditions

Presión 29.82 pul
Visibilidad 6.2 Millas
Nubes Nubes dispersas 1000 ft
Punto de rocío 77 ° F
Humedad 94%
Precipitaciones 0.00 pul
Espesor de la nieve No disponible.
UV 0 de una escala de 12
Polen No disponible.
Calidad del aire No disponible.
Flu Activity No disponible.
METAR SKBQ 250800Z 24004KT 9999 SCT010 26/25 A2982

More Conditions Fewer Conditions

10-Day Weather Forecast

Almanac

Astronomía

Oct. 25, 2014 Salida Puesta
Hora real 5:51 AM COT 5:40 PM COT
Crepúsculo civil 5:30 AM COT 6:01 PM COT
Crepúsculo náutico 5:05 AM COT 6:26 PM COT
Crepúsculo astronómico 4:40 AM COT 6:51 PM COT
Luna 7:16 AM COT 7:16 PM COT
Horas de luz 12h 31m
Horas de luz
11h 48m
Tomorrow will be 0m 31s shorter.
Luna nueva, 2% of the Moon is Illuminated
Hoy
Luna nueva
Oct 30
Cuarto creciente
Nov 6
Luna llena
Nov 14
Cuarto menguante
Nov 22
Nueva

Extremos de ayer

Máximos del país Bajas del país

Community

WunderPhotos

Upload Photos

1,764,791 ¡fotos cargadas!

Nearby

Calidad del aire

Not available.

Grosos de nieve

Not available.

Actividad de terremotos

Ciudad Distance Mag. Tiempo y dato
No hay informes recientes de la actividad sísmica.
Magnitud mínima muestra es 2,5.

Temperaturas de aguas costeras

Lugar Temperatura
Sin partes meteorológicos de las estaciones

Estaciones meteorológicas cercanas